Time;durP1;ratioP1;P1;durP2;ratioP2;P2;SDS_P1;SDS_P2;PMS_P1;PMS_P2;Temp;Humidity;BMP_temperature;BMP_pressure;BME280_temperature;BME280_humidity;BME280_pressure;Samples;Min_cycle;Max_cycle;Signal;HPM_P1;HPM_P2
2021/04/15 00:01:52;;;;;;;12.35;9.60;;;5.30;99.90;;;;;;5038177;28;20077;-78
2021/04/15 00:04:18;;;;;;;11.23;8.35;;;5.30;99.90;;;;;;5038345;28;20077;-77
2021/04/15 00:06:45;;;;;;;11.35;8.52;;;5.30;99.90;;;;;;5034510;28;20137;-78
2021/04/15 00:09:14;;;;;;;12.02;9.65;;;5.20;99.90;;;;;;5035614;28;20135;-78
2021/04/15 00:11:41;;;;;;;12.05;9.52;;;5.20;99.90;;;;;;5042977;28;20511;-78
2021/04/15 00:14:10;;;;;;;14.57;9.40;;;5.10;99.90;;;;;;5057081;28;20091;-78
2021/04/15 00:16:37;;;;;;;13.95;9.77;;;5.00;99.90;;;;;;5056034;28;20143;-78
2021/04/15 00:19:05;;;;;;;12.88;9.95;;;5.00;99.90;;;;;;5058743;28;20426;-79
2021/04/15 00:21:31;;;;;;;14.63;10.52;;;5.00;99.90;;;;;;5058865;28;20063;-78
2021/04/15 00:23:57;;;;;;;14.73;9.95;;;5.00;99.90;;;;;;5059099;28;20053;-80
2021/04/15 00:26:26;;;;;;;13.48;10.18;;;5.00;99.90;;;;;;5059270;28;20164;-78
2021/04/15 00:28:53;;;;;;;13.88;10.30;;;5.00;99.90;;;;;;5057836;28;20117;-78
2021/04/15 00:31:21;;;;;;;13.77;11.18;;;5.00;99.90;;;;;;5055828;28;20076;-78
2021/04/15 00:33:48;;;;;;;13.98;10.93;;;5.00;99.90;;;;;;5054592;28;20136;-77
2021/04/15 00:36:15;;;;;;;15.07;10.20;;;4.90;99.90;;;;;;5054283;28;20045;-77
2021/04/15 00:38:41;;;;;;;15.30;10.52;;;4.90;99.90;;;;;;5054368;28;20040;-77
2021/04/15 00:41:09;;;;;;;13.68;10.88;;;4.90;99.90;;;;;;5054908;28;20069;-78
2021/04/15 00:43:39;;;;;;;14.68;10.30;;;4.80;99.90;;;;;;5055004;28;20126;-78
2021/04/15 00:46:37;;;;;;;16.42;11.43;;;4.80;99.90;;;;;;5057685;28;20137;-81
2021/04/15 00:49:05;;;;;;;14.57;11.20;;;4.80;99.90;;;;;;5061761;28;20092;-80
2021/04/15 00:51:36;;;;;;;15.52;10.75;;;4.70;99.90;;;;;;5060606;28;20124;-80
2021/04/15 00:54:06;;;;;;;14.73;10.85;;;4.70;99.90;;;;;;5060997;28;20060;-80
2021/04/15 00:56:33;;;;;;;18.98;11.95;;;4.60;99.90;;;;;;5060345;28;20116;-80
2021/04/15 00:59:01;;;;;;;15.45;11.35;;;4.60;99.90;;;;;;5060624;28;20061;-80
2021/04/15 01:01:28;;;;;;;14.07;11.80;;;4.50;99.90;;;;;;5061218;28;20472;-79
2021/04/15 01:03:55;;;;;;;13.45;11.68;;;4.50;99.90;;;;;;5059688;28;20140;-79
2021/04/15 01:06:22;;;;;;;16.05;12.07;;;4.40;99.90;;;;;;5059984;28;20048;-80
2021/04/15 01:08:49;;;;;;;17.08;11.93;;;4.40;99.90;;;;;;5060517;28;20131;-79
2021/04/15 01:11:29;;;;;;;17.60;11.68;;;4.30;99.90;;;;;;5060742;28;20048;-80
2021/04/15 01:14:03;;;;;;;17.33;11.25;;;4.30;99.90;;;;;;5058176;28;20044;-78
2021/04/15 01:16:35;;;;;;;15.70;11.65;;;4.20;99.90;;;;;;5058954;28;20218;-79
2021/04/15 01:19:31;;;;;;;17.75;12.57;;;4.20;99.90;;;;;;5057963;28;20540;-79
2021/04/15 01:22:40;;;;;;;16.88;11.52;;;4.20;99.90;;;;;;5058387;28;20060;-79
2021/04/15 01:25:15;;;;;;;16.77;11.20;;;4.20;99.90;;;;;;5056356;28;20141;-79
2021/04/15 01:27:47;;;;;;;19.70;12.98;;;4.20;99.90;;;;;;5055932;28;20133;-78
2021/04/15 01:30:23;;;;;;;18.80;13.15;;;4.10;99.90;;;;;;5057060;28;20501;-79
2021/04/15 01:32:57;;;;;;;20.98;12.95;;;4.10;99.90;;;;;;5056871;28;20053;-80
2021/04/15 01:35:28;;;;;;;17.27;11.85;;;4.00;99.90;;;;;;5057302;28;20468;-79
2021/04/15 01:38:04;;;;;;;18.75;12.27;;;4.00;99.90;;;;;;5056782;28;20131;-79
2021/04/15 01:40:35;;;;;;;17.20;13.45;;;3.90;99.90;;;;;;5054771;28;20128;-79
2021/04/15 01:43:12;;;;;;;19.60;13.30;;;3.80;99.90;;;;;;5053996;28;20136;-78
2021/04/15 01:45:40;;;;;;;16.80;13.40;;;3.70;99.90;;;;;;5053673;28;20531;-78
2021/04/15 01:48:10;;;;;;;17.83;14.23;;;3.70;99.90;;;;;;5053031;28;20049;-78
2021/04/15 01:50:40;;;;;;;19.98;14.68;;;3.70;99.90;;;;;;5052976;28;20048;-78
2021/04/15 01:53:18;;;;;;;18.15;14.20;;;3.70;99.90;;;;;;5053561;28;20081;-79
2021/04/15 01:55:50;;;;;;;20.50;14.60;;;3.60;99.90;;;;;;5053749;28;20537;-78
2021/04/15 01:58:20;;;;;;;20.33;15.57;;;3.60;99.90;;;;;;5054284;28;20095;-78
2021/04/15 02:00:51;;;;;;;21.20;15.75;;;3.50;99.90;;;;;;5054194;28;20541;-78
2021/04/15 02:03:23;;;;;;;19.98;15.18;;;3.50;99.90;;;;;;5054975;28;20060;-79
2021/04/15 02:05:54;;;;;;;22.52;15.77;;;3.50;99.90;;;;;;5055150;28;20135;-78
2021/04/15 02:08:25;;;;;;;22.17;16.80;;;3.50;99.90;;;;;;5054784;28;20102;-78
2021/04/15 02:10:57;;;;;;;20.85;15.68;;;3.40;99.90;;;;;;5053577;28;20045;-78
2021/04/15 02:13:26;;;;;;;22.33;16.43;;;3.40;99.90;;;;;;5052949;28;20144;-77
2021/04/15 02:15:58;;;;;;;25.80;17.23;;;3.40;99.90;;;;;;5052961;28;20302;-78
2021/04/15 02:18:33;;;;;;;23.98;18.08;;;3.30;99.90;;;;;;5053067;28;20477;-77
2021/04/15 02:21:05;;;;;;;24.90;17.42;;;3.30;99.90;;;;;;5053800;28;20048;-76
2021/04/15 02:23:36;;;;;;;27.52;18.05;;;3.20;99.90;;;;;;5054065;28;20604;-78
2021/04/15 02:26:06;;;;;;;25.40;18.30;;;3.20;99.90;;;;;;5052518;28;20136;-77
2021/04/15 02:28:40;;;;;;;25.40;18.48;;;3.10;99.90;;;;;;5052406;28;20080;-76
2021/04/15 02:31:12;;;;;;;24.85;18.35;;;3.10;99.90;;;;;;5052694;28;20111;-78
2021/04/15 02:33:44;;;;;;;30.40;18.95;;;3.10;99.90;;;;;;5052842;28;20472;-78
2021/04/15 02:36:11;;;;;;;23.67;18.92;;;3.00;99.90;;;;;;5052348;28;20056;-75
2021/04/15 02:38:45;;;;;;;25.42;18.63;;;3.00;99.90;;;;;;5053088;28;20110;-78
2021/04/15 02:41:16;;;;;;;24.73;18.10;;;3.00;99.90;;;;;;5053280;28;20059;-78
2021/04/15 02:43:45;;;;;;;24.80;18.38;;;3.00;99.90;;;;;;5052860;28;20140;-76
2021/04/15 02:46:15;;;;;;;23.33;19.05;;;3.00;99.90;;;;;;5053028;28;20053;-76
2021/04/15 02:48:42;;;;;;;26.33;19.55;;;3.00;99.90;;;;;;5054643;28;20044;-79
2021/04/15 02:51:12;;;;;;;29.00;18.67;;;2.90;99.90;;;;;;5056619;28;20135;-79
2021/04/15 02:53:47;;;;;;;28.00;19.92;;;2.90;99.90;;;;;;5060427;28;20080;-78
2021/04/15 02:56:18;;;;;;;28.63;19.92;;;2.90;99.90;;;;;;5057195;28;20124;-78
2021/04/15 02:58:49;;;;;;;25.45;18.63;;;2.80;99.90;;;;;;5058369;28;20077;-76
2021/04/15 03:01:21;;;;;;;24.05;18.90;;;2.80;99.90;;;;;;5058797;28;20470;-79
2021/04/15 03:03:50;;;;;;;23.52;19.02;;;2.80;99.90;;;;;;5059251;28;20113;-80
2021/04/15 03:06:19;;;;;;;26.60;19.85;;;2.80;99.90;;;;;;5059878;28;20063;-79
2021/04/15 03:08:50;;;;;;;26.30;19.45;;;2.80;99.90;;;;;;5060751;28;20108;-78
2021/04/15 03:11:20;;;;;;;28.02;19.92;;;2.80;99.90;;;;;;5061096;28;20084;-79
2021/04/15 03:13:51;;;;;;;24.60;19.20;;;2.70;99.90;;;;;;5057017;28;20128;-79
2021/04/15 03:16:21;;;;;;;26.38;19.67;;;2.70;99.90;;;;;;5058943;28;20077;-79
2021/04/15 03:18:53;;;;;;;25.52;20.50;;;2.60;99.90;;;;;;5058933;28;20045;-79
2021/04/15 03:21:26;;;;;;;32.33;22.05;;;2.60;99.90;;;;;;5057920;28;20572;-79
2021/04/15 03:23:56;;;;;;;26.77;21.42;;;2.60;99.90;;;;;;5057255;28;20139;-78
2021/04/15 03:26:37;;;;;;;26.45;20.85;;;2.60;99.90;;;;;;5057039;28;20052;-79
2021/04/15 03:29:14;;;;;;;25.25;20.52;;;2.60;99.90;;;;;;5057139;28;20128;-79
2021/04/15 03:31:45;;;;;;;29.02;22.02;;;2.50;99.90;;;;;;5057587;28;20515;-78
2021/04/15 03:34:19;;;;;;;32.10;22.48;;;2.50;99.90;;;;;;5056689;28;20063;-78
2021/04/15 03:36:51;;;;;;;29.10;21.10;;;2.50;99.90;;;;;;5055459;28;20132;-77
2021/04/15 03:39:23;;;;;;;30.30;22.43;;;2.50;99.90;;;;;;5055841;28;20421;-77
2021/04/15 03:41:55;;;;;;;27.48;21.48;;;2.40;99.90;;;;;;5055856;28;20489;-79
2021/04/15 03:44:25;;;;;;;31.90;22.45;;;2.40;99.90;;;;;;5055087;28;20049;-78
2021/04/15 03:46:55;;;;;;;29.17;22.13;;;2.30;99.90;;;;;;5078575;22;20063;-78
2021/04/15 03:49:27;;;;;;;29.73;22.10;;;2.40;99.90;;;;;;5054420;28;20490;-78
2021/04/15 03:51:58;;;;;;;32.17;22.77;;;2.30;99.90;;;;;;5054569;28;20053;-79
2021/04/15 03:54:32;;;;;;;34.58;22.98;;;2.40;99.90;;;;;;5057902;28;20127;-79
2021/04/15 03:57:10;;;;;;;27.92;22.58;;;2.30;99.90;;;;;;5063714;28;20057;-79
2021/04/15 03:59:45;;;;;;;32.97;25.05;;;2.30;99.90;;;;;;5064377;28;20063;-78
2021/04/15 04:02:15;;;;;;;38.97;24.55;;;2.30;99.90;;;;;;5059375;28;20497;-79
2021/04/15 04:04:48;;;;;;;34.63;26.55;;;2.30;99.90;;;;;;5055049;28;20136;-78
2021/04/15 04:07:24;;;;;;;34.20;25.95;;;2.30;99.90;;;;;;5058722;28;20040;-78
2021/04/15 04:09:54;;;;;;;35.05;27.23;;;2.20;99.90;;;;;;5058402;28;20045;-80
2021/04/15 04:12:25;;;;;;;37.28;27.83;;;2.20;99.90;;;;;;5057744;28;20128;-79
2021/04/15 04:15:00;;;;;;;36.53;28.25;;;2.20;99.90;;;;;;5059063;28;20304;-77
2021/04/15 04:17:51;;;;;;;38.92;30.50;;;2.20;99.90;;;;;;5062338;28;20064;-78
2021/04/15 04:20:21;;;;;;;40.58;30.08;;;2.10;99.90;;;;;;5061788;28;20095;-78
2021/04/15 04:23:01;;;;;;;42.05;30.13;;;2.10;99.90;;;;;;5060175;28;20053;-78
2021/04/15 04:25:36;;;;;;;42.97;31.55;;;2.00;99.90;;;;;;5062119;28;20056;-80
2021/04/15 04:28:09;;;;;;;44.70;32.80;;;2.00;99.90;;;;;;5070935;28;20133;-81
2021/04/15 04:30:38;;;;;;;;;;;2.00;99.90;;;;;;5076780;28;20037;-81
2021/04/15 04:33:08;;;;;;;44.45;31.23;;;2.00;99.90;;;;;;5074772;28;19909;-79
2021/04/15 04:35:39;;;;;;;45.85;34.05;;;2.00;99.90;;;;;;5053719;28;20480;-78
2021/04/15 04:38:08;;;;;;;46.47;33.08;;;2.00;99.90;;;;;;5052934;28;20056;-78
2021/04/15 04:40:37;;;;;;;47.90;35.13;;;2.00;99.90;;;;;;5053731;28;20055;-78
2021/04/15 04:43:10;;;;;;;44.05;33.72;;;2.00;99.90;;;;;;5053136;28;20135;-79
2021/04/15 04:45:37;;;;;;;48.20;33.97;;;2.00;99.90;;;;;;5052621;28;20135;-78
2021/04/15 04:48:11;;;;;;;46.28;33.38;;;2.00;99.90;;;;;;5052977;28;20495;-77
2021/04/15 04:50:44;;;;;;;45.22;33.53;;;2.00;99.90;;;;;;5056794;28;20135;-79
2021/04/15 04:53:14;;;;;;;45.47;33.67;;;2.00;99.90;;;;;;5058118;28;20091;-79
2021/04/15 04:55:44;;;;;;;47.15;33.58;;;2.00;99.90;;;;;;5056880;28;20045;-79
2021/04/15 04:58:15;;;;;;;45.33;33.05;;;2.00;99.90;;;;;;5056828;28;20069;-79
2021/04/15 05:00:45;;;;;;;46.83;32.67;;;2.00;99.90;;;;;;5057460;28;20060;-78
2021/04/15 05:03:18;;;;;;;41.25;32.13;;;2.10;99.90;;;;;;5059222;28;20056;-79
2021/04/15 05:05:45;;;;;;;42.50;31.42;;;2.10;99.90;;;;;;5056699;28;20084;-79
2021/04/15 05:08:15;;;;;;;42.97;30.20;;;2.10;99.90;;;;;;5054941;28;20048;-79
2021/04/15 05:10:41;;;;;;;41.08;30.63;;;2.20;99.90;;;;;;5062038;28;20133;-82
2021/04/15 05:13:11;;;;;;;38.88;30.17;;;2.20;99.90;;;;;;5064672;28;20473;-80
2021/04/15 05:15:40;;;;;;;42.40;31.08;;;2.20;99.90;;;;;;5062401;28;20132;-81
2021/04/15 05:18:08;;;;;;;41.70;30.67;;;2.30;99.90;;;;;;5065491;28;20076;-81
2021/04/15 05:20:35;;;;;;;46.72;32.47;;;2.30;99.90;;;;;;5061732;28;20075;-79
2021/04/15 05:23:06;;;;;;;37.33;29.75;;;2.30;99.90;;;;;;5055242;28;20056;-79
2021/04/15 05:25:37;;;;;;;38.22;28.13;;;2.30;99.90;;;;;;5057759;28;20048;-79
2021/04/15 05:28:08;;;;;;;39.13;28.17;;;2.40;99.90;;;;;;5057522;28;20135;-79
2021/04/15 05:30:40;;;;;;;39.08;27.83;;;2.40;99.90;;;;;;5057381;28;20203;-80
2021/04/15 05:33:11;;;;;;;32.08;25.67;;;2.50;99.90;;;;;;5056110;28;20065;-79
2021/04/15 05:35:42;;;;;;;36.95;25.10;;;2.60;99.90;;;;;;5055291;28;20049;-80
2021/04/15 05:38:11;;;;;;;35.72;24.95;;;2.70;99.90;;;;;;5053541;28;20055;-78
2021/04/15 05:40:38;;;;;;;35.97;24.10;;;2.70;99.90;;;;;;5058223;28;20045;-78
2021/04/15 05:43:28;;;;;;;30.77;23.67;;;2.70;99.90;;;;;;5052848;28;20137;-81
2021/04/15 05:46:04;;;;;;;30.77;25.08;;;2.80;99.90;;;;;;5053199;28;20549;-79
2021/04/15 05:48:32;;;;;;;35.50;27.15;;;2.90;99.90;;;;;;5052625;28;20055;-78
2021/04/15 05:51:04;;;;;;;34.33;26.42;;;2.90;99.90;;;;;;5054867;28;20080;-78
2021/04/15 05:53:36;;;;;;;40.45;29.10;;;3.00;99.90;;;;;;5059278;28;20135;-79
2021/04/15 05:56:07;;;;;;;39.83;30.30;;;3.20;99.90;;;;;;5058713;28;20108;-78
2021/04/15 05:58:40;;;;;;;34.88;28.05;;;3.40;99.90;;;;;;5058556;28;20582;-79
2021/04/15 06:01:11;;;;;;;32.67;25.25;;;4.00;99.90;;;;;;5056354;28;20060;-79
2021/04/15 06:03:49;;;;;;;25.95;22.20;;;4.60;99.90;;;;;;5054923;28;20110;-79
2021/04/15 06:06:19;;;;;;;23.67;20.30;;;5.40;99.90;;;;;;5054281;28;20465;-79
2021/04/15 06:08:50;;;;;;;26.65;20.10;;;6.10;99.90;;;;;;5054247;28;20055;-79
2021/04/15 06:11:41;;;;;;;22.75;19.20;;;6.70;99.90;;;;;;5055135;28;20071;-79
2021/04/15 06:14:16;;;;;;;23.50;19.27;;;7.70;99.90;;;;;;5055367;28;20115;-79
2021/04/15 06:16:46;;;;;;;21.02;18.58;;;8.40;99.90;;;;;;5053562;28;20127;-80
2021/04/15 06:19:15;;;;;;;21.67;19.13;;;9.00;99.90;;;;;;5056942;28;20109;-79
2021/04/15 06:21:48;;;;;;;20.95;18.75;;;9.50;99.90;;;;;;5056231;28;20081;-79
2021/04/15 06:24:20;;;;;;;22.02;19.33;;;9.70;99.90;;;;;;5058091;28;20072;-80
2021/04/15 06:26:50;;;;;;;24.55;19.10;;;10.00;99.90;;;;;;5064936;28;20106;-78
2021/04/15 06:29:30;;;;;;;27.30;20.35;;;9.80;99.90;;;;;;5072988;28;20045;-80
2021/04/15 06:31:58;;;;;;;24.02;20.13;;;9.30;99.90;;;;;;5074760;28;20063;-79
2021/04/15 06:34:28;;;;;;;27.15;20.33;;;9.30;99.90;;;;;;5071360;28;20048;-80
2021/04/15 06:47:44;;;;;;;;;;;;;;;;;;;;;
2021/04/15 06:50:27;;;;;;;27.02;20.40;;;9.50;99.90;;;;;;5060988;28;20113;-83
2021/04/15 06:53:21;;;;;;;22.38;19.23;;;9.40;99.90;;;;;;5054167;28;20056;-79
2021/04/15 06:56:17;;;;;;;24.67;19.35;;;9.50;99.90;;;;;;5051136;28;20049;-79
2021/04/15 06:59:03;;;;;;;21.60;16.90;;;9.40;99.90;;;;;;5057072;28;20080;-79
2021/04/15 07:01:48;;;;;;;22.38;17.60;;;9.40;99.90;;;;;;5063754;28;20533;-80
2021/04/15 07:04:20;;;;;;;22.13;17.17;;;9.30;99.90;;;;;;5064207;28;20076;-82
2021/04/15 07:06:55;;;;;;;21.73;17.48;;;9.20;99.90;;;;;;5063206;28;20056;-83
2021/04/15 07:09:55;;;;;;;21.17;17.65;;;9.30;99.90;;;;;;5061441;28;20041;-80
2021/04/15 07:13:02;;;;;;;21.27;17.00;;;9.80;99.90;;;;;;5060619;28;20048;-79
2021/04/15 07:16:10;;;;;;;20.83;17.05;;;10.00;99.90;;;;;;5042893;28;20057;-80
2021/04/15 07:18:53;;;;;;;18.65;14.27;;;10.60;99.90;;;;;;5011682;28;20061;-78
2021/04/15 07:21:58;;;;;;;19.80;15.38;;;11.20;99.90;;;;;;5037818;28;20046;-79
2021/04/15 07:24:46;;;;;;;19.80;15.25;;;11.00;99.90;;;;;;5031926;28;20050;-77
2021/04/15 07:27:51;;;;;;;18.13;14.75;;;11.40;99.90;;;;;;5035981;28;20060;-78
2021/04/15 07:30:27;;;;;;;17.33;14.77;;;11.10;99.90;;;;;;5022798;28;20045;-79
2021/04/15 07:33:26;;;;;;;17.65;14.18;;;11.40;99.90;;;;;;5035962;28;20084;-78
2021/04/15 07:36:29;;;;;;;18.58;14.30;;;11.80;99.90;;;;;;5035790;28;20132;-81
2021/04/15 07:39:36;;;;;;;18.42;13.30;;;11.70;99.90;;;;;;5034897;28;20057;-78
2021/04/15 07:42:27;;;;;;;16.55;14.27;;;11.70;99.90;;;;;;5035146;28;20292;-79
2021/04/15 07:44:59;;;;;;;16.65;14.70;;;11.20;99.90;;;;;;5025739;28;20053;-79
2021/04/15 07:48:04;;;;;;;19.52;15.18;;;11.40;99.90;;;;;;5035008;28;20100;-78
2021/04/15 07:51:19;;;;;;;17.45;13.93;;;11.50;99.90;;;;;;5034453;28;20061;-79
2021/04/15 07:54:02;;;;;;;15.15;13.10;;;11.80;99.90;;;;;;5034404;28;20052;-78
2021/04/15 07:56:39;;;;;;;;;;;11.90;99.90;;;;;;5037436;28;20084;-79
2021/04/15 07:59:19;;;;;;;17.13;11.98;;;12.20;99.90;;;;;;5037646;28;20022;-79
2021/04/15 08:02:02;;;;;;;14.80;12.50;;;11.80;99.90;;;;;;5036867;28;20053;-79
2021/04/15 08:05:11;;;;;;;18.80;12.63;;;11.50;99.90;;;;;;5037660;28;20072;-78
2021/04/15 08:08:00;;;;;;;15.80;12.55;;;11.60;99.90;;;;;;5037466;28;20050;-79
2021/04/15 08:11:00;;;;;;;16.52;11.10;;;10.90;99.90;;;;;;5038510;28;20060;-79
2021/04/15 08:13:50;;;;;;;17.13;12.10;;;11.30;99.90;;;;;;5041422;28;20077;-79
2021/04/15 08:16:46;;;;;;;12.40;10.55;;;11.50;99.90;;;;;;5034205;28;20111;-78
2021/04/15 08:19:42;;;;;;;13.43;11.27;;;11.60;99.90;;;;;;5012389;28;20261;-79
2021/04/15 08:22:19;;;;;;;14.70;11.40;;;11.90;99.90;;;;;;5034451;28;20065;-77
2021/04/15 08:24:58;;;;;;;13.13;11.43;;;12.40;99.90;;;;;;5034122;28;20057;-78
2021/04/15 08:27:58;;;;;;;15.27;12.63;;;12.30;99.90;;;;;;5033279;28;20061;-78
2021/04/15 08:30:38;;;;;;;15.00;11.88;;;12.20;99.90;;;;;;5034197;28;20398;-77
2021/04/15 08:33:16;;;;;;;17.17;12.48;;;12.30;99.90;;;;;;5035309;28;20049;-77
2021/04/15 08:36:06;;;;;;;11.57;9.48;;;11.80;99.90;;;;;;5038513;28;20064;-78
2021/04/15 08:38:49;;;;;;;12.55;9.43;;;12.30;99.90;;;;;;5041241;28;20049;-78
2021/04/15 08:41:28;;;;;;;11.77;9.38;;;12.50;99.90;;;;;;5039248;28;20068;-76
2021/04/15 08:44:24;;;;;;;11.38;8.63;;;12.60;99.90;;;;;;5038557;28;20144;-78
2021/04/15 08:47:04;;;;;;;12.70;10.32;;;12.40;99.90;;;;;;5035389;28;20080;-78
2021/04/15 08:49:38;;;;;;;15.10;10.82;;;12.60;99.90;;;;;;5034212;28;20049;-80
2021/04/15 08:52:31;;;;;;;12.23;9.50;;;12.60;99.90;;;;;;5034059;28;20061;-79
2021/04/15 08:55:21;;;;;;;15.73;9.55;;;12.10;99.90;;;;;;5034152;28;20132;-77
2021/04/15 08:58:10;;;;;;;12.20;7.35;;;11.90;99.90;;;;;;5034159;28;20049;-77
2021/04/15 09:00:43;;;;;;;13.18;6.10;;;11.90;99.90;;;;;;5033194;28;20130;-78
2021/04/15 09:03:38;;;;;;;9.15;6.30;;;12.20;99.90;;;;;;5033621;28;20057;-78
2021/04/15 09:06:25;;;;;;;16.35;12.65;;;11.90;99.90;;;;;;5020380;28;20087;-77
2021/04/15 09:09:07;;;;;;;17.90;12.60;;;11.70;99.90;;;;;;5033692;28;20049;-78
2021/04/15 09:11:40;;;;;;;13.77;11.97;;;11.50;99.90;;;;;;5033835;28;20092;-77
2021/04/15 09:14:17;;;;;;;14.18;11.48;;;11.20;99.90;;;;;;5033374;28;20049;-77
2021/04/15 09:16:53;;;;;;;13.60;11.32;;;10.90;99.90;;;;;;5033018;28;20587;-77
2021/04/15 09:19:34;;;;;;;15.85;11.07;;;10.70;99.90;;;;;;5032882;28;20088;-78
2021/04/15 09:22:10;;;;;;;11.50;8.18;;;11.20;99.90;;;;;;5033796;28;20111;-77
2021/04/15 09:24:43;;;;;;;12.60;9.10;;;11.40;99.90;;;;;;5033338;28;20482;-78
2021/04/15 09:27:27;;;;;;;;;;;11.40;99.90;;;;;;5034285;28;20046;-78
2021/04/15 09:30:05;;;;;;;8.98;7.50;;;11.20;99.90;;;;;;5033145;28;20315;-78
2021/04/15 09:32:41;;;;;;;12.10;7.90;;;10.80;99.90;;;;;;5032536;28;20537;-78
2021/04/15 09:35:48;;;;;;;10.73;7.63;;;11.00;99.90;;;;;;5032140;28;20060;-77
2021/04/15 09:38:58;;;;;;;11.50;7.70;;;10.80;99.90;;;;;;4996306;28;20049;-77
2021/04/15 09:42:16;;;;;;;12.32;7.72;;;10.70;99.90;;;;;;5032830;28;20605;-76
2021/04/15 09:44:53;;;;;;;14.00;6.72;;;10.70;99.90;;;;;;4952286;29;20131;-79
2021/04/15 09:47:37;;;;;;;11.90;7.38;;;10.70;99.90;;;;;;4953261;28;20062;-77
2021/04/15 09:50:19;;;;;;;13.25;7.70;;;10.50;99.90;;;;;;5003144;28;20407;-75
2021/04/15 09:53:11;;;;;;;11.82;8.13;;;10.50;99.90;;;;;;5032218;28;20099;-77
2021/04/15 09:55:56;;;;;;;12.82;7.43;;;10.60;99.90;;;;;;5032254;28;20132;-77
2021/04/15 09:58:30;;;;;;;11.30;7.05;;;10.50;99.90;;;;;;5032884;28;20055;-78
2021/04/15 10:01:00;;;;;;;12.77;7.38;;;10.10;99.90;;;;;;5036093;28;20057;-78
2021/04/15 10:03:40;;;;;;;11.50;7.15;;;9.90;99.90;;;;;;5039623;28;20080;-79
2021/04/15 10:06:22;;;;;;;12.57;7.30;;;10.00;99.90;;;;;;5039454;28;20114;-76
2021/04/15 10:09:03;;;;;;;12.93;7.57;;;9.80;99.90;;;;;;5039346;28;20132;-78
2021/04/15 10:12:00;;;;;;;10.73;7.30;;;9.80;99.90;;;;;;5040392;28;20076;-78
2021/04/15 10:14:35;;;;;;;11.70;7.78;;;9.70;99.90;;;;;;5036396;28;20054;-77
2021/04/15 10:17:13;;;;;;;11.43;7.72;;;9.70;99.90;;;;;;5038921;28;20132;-77
2021/04/15 10:20:14;;;;;;;14.13;7.65;;;9.90;99.90;;;;;;5039575;28;20081;-77
2021/04/15 10:22:51;;;;;;;10.00;7.07;;;10.10;99.90;;;;;;5039187;28;20099;-76
2021/04/15 10:25:21;;;;;;;12.52;6.95;;;10.30;99.90;;;;;;5039460;28;20453;-78
2021/04/15 10:28:12;;;;;;;8.90;6.75;;;10.50;99.90;;;;;;5038579;28;20471;-78
2021/04/15 10:31:08;;;;;;;10.40;6.38;;;10.50;99.90;;;;;;5038923;28;20080;-76
2021/04/15 10:34:06;;;;;;;9.63;6.32;;;10.80;99.90;;;;;;5038703;28;20081;-78
2021/04/15 10:36:50;;;;;;;8.55;6.00;;;10.40;99.90;;;;;;5038341;28;20064;-77
2021/04/15 10:39:52;;;;;;;9.90;5.88;;;10.60;99.90;;;;;;5038609;28;20140;-77
2021/04/15 10:43:04;;;;;;;10.57;6.45;;;11.10;99.90;;;;;;5038627;28;20136;-76
2021/04/15 10:46:06;;;;;;;9.98;6.13;;;11.30;99.90;;;;;;5002732;28;20519;-77
2021/04/15 10:48:43;;;;;;;8.13;5.95;;;10.90;99.90;;;;;;5016369;28;20049;-77
2021/04/15 10:51:22;;;;;;;7.65;5.55;;;10.90;99.90;;;;;;5039236;28;20049;-77
2021/04/15 10:53:53;;;;;;;10.68;5.47;;;10.80;99.90;;;;;;5038967;28;20084;-78
2021/04/15 10:56:48;;;;;;;9.80;5.20;;;10.80;99.90;;;;;;5038373;28;20079;-78
2021/04/15 10:59:18;;;;;;;7.93;5.38;;;10.70;99.90;;;;;;5046316;28;20440;-78
2021/04/15 11:01:46;;;;;;;8.27;5.20;;;10.70;99.90;;;;;;5038803;28;20131;-78
2021/04/15 11:04:24;;;;;;;6.72;4.60;;;10.50;99.90;;;;;;5042295;28;20510;-77
2021/04/15 11:06:54;;;;;;;7.57;5.07;;;10.40;99.90;;;;;;5038583;28;20053;-77
2021/04/15 11:09:37;;;;;;;8.25;5.60;;;10.40;99.90;;;;;;5039108;28;20053;-76
2021/04/15 11:12:19;;;;;;;6.97;5.03;;;10.80;99.90;;;;;;5037345;28;20054;-78
2021/04/15 11:15:09;;;;;;;8.80;5.53;;;11.30;99.90;;;;;;5035796;28;20053;-78
2021/04/15 11:17:41;;;;;;;7.80;5.43;;;11.50;99.90;;;;;;5034878;28;20053;-78
2021/04/15 11:20:30;;;;;;;11.63;5.82;;;11.60;99.90;;;;;;5035574;28;20053;-78
2021/04/15 11:23:06;;;;;;;12.68;6.10;;;11.40;99.90;;;;;;5035437;28;20045;-77
2021/04/15 11:25:39;;;;;;;7.47;4.88;;;11.20;99.90;;;;;;5036198;28;20532;-77
2021/04/15 11:28:12;;;;;;;7.55;5.28;;;11.00;99.90;;;;;;5034929;28;20053;-77
2021/04/15 11:30:44;;;;;;;5.97;4.78;;;10.60;99.90;;;;;;5035893;28;20465;-78
2021/04/15 11:33:13;;;;;;;7.55;5.15;;;10.70;99.90;;;;;;5035380;28;20077;-78
2021/04/15 11:35:40;;;;;;;8.85;5.90;;;10.70;99.90;;;;;;5035653;28;20465;-78
2021/04/15 11:38:17;;;;;;;7.20;5.43;;;11.00;99.90;;;;;;5034478;28;20049;-78
2021/04/15 11:40:47;;;;;;;8.00;5.68;;;11.00;99.90;;;;;;5034360;28;20076;-78
2021/04/15 11:43:35;;;;;;;9.23;6.20;;;11.20;99.90;;;;;;5034574;28;20140;-78
2021/04/15 11:46:14;;;;;;;8.18;6.15;;;11.30;99.90;;;;;;5028506;28;20081;-78
2021/04/15 11:48:41;;;;;;;8.27;5.85;;;11.40;99.90;;;;;;5034246;28;20061;-77
2021/04/15 11:51:14;;;;;;;8.57;5.80;;;11.60;99.90;;;;;;5035156;28;20049;-77
2021/04/15 11:53:44;;;;;;;11.32;5.65;;;11.60;99.90;;;;;;5035375;28;20525;-78
2021/04/15 11:56:16;;;;;;;10.63;5.55;;;11.60;99.90;;;;;;5034761;28;20049;-76
2021/04/15 11:58:42;;;;;;;10.98;6.03;;;11.60;99.90;;;;;;5034565;28;20152;-78
2021/04/15 12:01:09;;;;;;;7.93;5.10;;;11.60;99.90;;;;;;5034706;28;20045;-78
2021/04/15 12:03:35;;;;;;;7.93;5.10;;;11.60;99.90;;;;;;5034595;28;20099;-78
2021/04/15 12:06:08;;;;;;;7.03;5.40;;;11.50;98.70;;;;;;5034358;28;20103;-79
2021/04/15 12:08:38;;;;;;;7.43;5.50;;;11.80;99.90;;;;;;5034327;28;20410;-78
2021/04/15 12:11:08;;;;;;;9.10;5.55;;;12.00;99.90;;;;;;5034971;28;20366;-78
2021/04/15 12:13:38;;;;;;;6.55;4.90;;;12.20;99.90;;;;;;5035306;28;20136;-79
2021/04/15 12:16:11;;;;;;;8.85;4.93;;;12.20;98.70;;;;;;5035258;28;20109;-78
2021/04/15 12:18:40;;;;;;;6.45;4.63;;;12.10;98.50;;;;;;5034177;28;20129;-78
2021/04/15 12:21:13;;;;;;;8.35;4.63;;;11.90;96.10;;;;;;5034821;28;20426;-77
2021/04/15 12:23:49;;;;;;;6.95;4.72;;;11.60;94.20;;;;;;5034878;28;20061;-77
2021/04/15 12:26:23;;;;;;;8.30;5.25;;;11.80;95.20;;;;;;5035545;28;20049;-78
2021/04/15 12:29:00;;;;;;;7.90;5.75;;;12.00;97.60;;;;;;5036086;28;20088;-78
2021/04/15 12:31:38;;;;;;;7.88;5.90;;;12.00;97.70;;;;;;5034954;28;20053;-78
2021/04/15 12:34:28;;;;;;;7.32;5.35;;;11.90;97.10;;;;;;5034320;28;20109;-77
2021/04/15 12:37:01;;;;;;;10.93;5.45;;;11.70;96.40;;;;;;5035397;28;20049;-78
2021/04/15 12:39:41;;;;;;;8.25;5.53;;;11.30;96.90;;;;;;5034821;28;20080;-79
2021/04/15 12:42:10;;;;;;;8.68;6.15;;;11.20;96.90;;;;;;5035314;28;20119;-78
2021/04/15 12:44:37;;;;;;;9.07;5.80;;;11.10;97.20;;;;;;5037229;28;20073;-77
2021/04/15 12:47:04;;;;;;;7.07;5.25;;;10.90;96.70;;;;;;5037727;28;20567;-79
2021/04/15 12:49:35;;;;;;;6.38;5.10;;;10.80;95.00;;;;;;5037082;28;20132;-78
2021/04/15 12:52:03;;;;;;;8.02;5.07;;;10.80;96.30;;;;;;5048113;28;20050;-80
2021/04/15 12:54:32;;;;;;;7.75;5.50;;;11.00;95.10;;;;;;5049963;28;20131;-79
2021/04/15 12:57:00;;;;;;;7.97;6.07;;;11.00;94.60;;;;;;5041953;28;20107;-78
2021/04/15 12:59:30;;;;;;;11.27;5.50;;;11.00;94.90;;;;;;5043554;28;20049;-78
2021/04/15 13:01:58;;;;;;;11.38;6.05;;;10.70;95.30;;;;;;5045245;28;20057;-78
2021/04/15 13:04:41;;;;;;;9.68;5.93;;;11.00;96.50;;;;;;5044966;28;20052;-76
2021/04/15 13:07:11;;;;;;;8.25;5.68;;;10.80;95.90;;;;;;5044871;28;20152;-78
2021/04/15 13:09:40;;;;;;;9.38;6.50;;;10.90;95.40;;;;;;5044789;28;20050;-77
2021/04/15 13:12:34;;;;;;;7.63;6.20;;;10.90;96.00;;;;;;5046614;28;20521;-77
2021/04/15 13:15:03;;;;;;;9.57;5.95;;;10.90;95.90;;;;;;5048246;28;20111;-78
2021/04/15 13:17:46;;;;;;;8.13;6.10;;;10.80;95.70;;;;;;5048988;28;20077;-77
2021/04/15 13:20:34;;;;;;;8.13;6.07;;;10.70;95.30;;;;;;5045413;28;20073;-78
2021/04/15 13:23:36;;;;;;;6.65;5.35;;;10.80;95.40;;;;;;5045073;28;20192;-77
2021/04/15 13:26:33;;;;;;;8.93;6.20;;;11.40;93.80;;;;;;4963822;29;20054;-77
2021/04/15 13:29:23;;;;;;;9.63;6.10;;;11.90;94.80;;;;;;4964783;29;20126;-78
2021/04/15 13:31:57;;;;;;;7.65;5.47;;;12.20;95.20;;;;;;5024599;28;20139;-79
2021/04/15 13:34:27;;;;;;;7.00;5.75;;;12.30;93.50;;;;;;5034416;28;20145;-78
2021/04/15 13:37:38;;;;;;;7.32;5.78;;;12.20;94.60;;;;;;5033263;28;20050;-77
2021/04/15 13:40:30;;;;;;;8.63;6.32;;;12.10;93.90;;;;;;5033606;28;20137;-78
2021/04/15 13:42:57;;;;;;;8.65;6.10;;;12.10;92.20;;;;;;5032984;28;20057;-77